• Join FlightAware (Why Join?)
  • Login
  • US Flag 
11:09PM EDT


 

Airport Tracker/Info


-or-


 

Live Flight TrackerFlight Track Log ✈ SWA1319 ✈ 18-Apr-2013 ✈ KBHM - KDAL

Flight Track Log - Related Links

Times and Time Zones

All times are in EDT time to prevent confusion due to time zone crossing. See the SWA1319 flight status page for this flight to view local times or setup timezone preferences in your user account.

Time Position Orientation Groundspeed Altitude Reporting Facility
EDT Latitude Longitude Course Direction KTS MPH feet Rate Location/Type
01:49PM 33.5486 -86.7831 222° Southwest 191 220 1,300  Level Atlanta Center
01:51PM 33.4994 -86.8364 222° Southwest 228 262 3,900 2,220 Climbing Atlanta Center
01:52PM 33.4394 -86.8169 203° Southwest 233 268 6,300 2,640 Climbing Atlanta Center
01:53PM 33.3758 -86.8572 208° Southwest 233 268 9,200 2,400 Climbing Atlanta Center
01:54PM 33.3061 -86.8972 206° Southwest 261 300 11,100 2,220 Climbing Atlanta Center
01:55PM 33.2383 -86.9397 208° Southwest 287 330 13,700 2,400 Climbing Atlanta Center
01:56PM 33.1642 -86.9844 207° Southwest 298 343 16,000 1,500 Climbing Atlanta Center
01:57PM 33.0794 -87.0311 205° Southwest 319 367 16,700 1,260 Climbing Atlanta Center
01:58PM 32.9842 -87.0872 206° Southwest 354 407 18,600 1,800 Climbing Atlanta Center
01:59PM 32.8931 -87.1433 207° Southwest 369 425 20,400 1,680 Climbing Atlanta Center
02:00PM 32.7914 -87.1992 205° Southwest 383 441 22,000 1,380 Climbing Atlanta Center
02:01PM 32.6897 -87.2597 207° Southwest 396 456 23,200 1,320 Climbing Atlanta Center
02:02PM 32.5861 -87.3150 204° Southwest 408 470 24,700 1,620 Climbing Atlanta Center
02:03PM 32.4800 -87.3800 207° Southwest 425 489 26,500 1,620 Climbing Atlanta Center
02:04PM 32.3758 -87.4450 208° Southwest 425 489 28,000 1,200 Climbing Atlanta Center
02:05PM 32.2697 -87.5072 206° Southwest 425 489 28,900 1,140 Climbing Atlanta Center
02:06PM 32.1447 -87.5711 203° Southwest 431 496 30,300 1,260 Climbing Atlanta Center
02:07PM 32.0389 -87.6306 205° Southwest 431 496 31,500 960 Climbing Atlanta Center
02:08PM 31.8589 -87.7286 205° Southwest 425 489 33,200 840 Climbing Houston Center
02:09PM 31.7306 -87.8003 205° Southwest 427 491 34,000 360 Climbing Houston Center
02:11PM 31.6214 -87.8614 205° Southwest 432 497 34,000  Level Houston Center
02:12PM 31.5128 -87.9228 206° Southwest 434 499 34,000  Level Houston Center
02:13PM 31.4047 -87.9836 206° Southwest 431 496 34,000  Level Houston Center
02:14PM 31.2978 -88.0431 205° Southwest 426 490 34,000  Level Houston Center
02:15PM 31.1850 -88.1064 206° Southwest 425 489 34,000  Level Houston Center
02:16PM 31.0772 -88.1658 205° Southwest 427 491 34,000  Level Houston Center
02:17PM 30.9461 -88.2344 204° Southwest 431 496 34,000  Level Houston Center
02:18PM 30.8378 -88.2958 206° Southwest 430 495 34,000  Level Houston Center
02:19PM 30.7386 -88.3661 211° Southwest 423 487 34,000  Level Houston Center
02:20PM 30.7161 -88.4878 258° West 392 451 34,000  Level Houston Center
02:21PM 30.7061 -88.6172 265° West 388 447 34,000  Level Houston Center
02:22PM 30.6958 -88.7431 265° West 390 449 34,000  Level Houston Center
02:23PM 30.6872 -88.8678 265° West 388 447 34,000  Level Houston Center
02:24PM 30.6772 -89.0086 265° West 384 442 34,000  Level Houston Center
02:25PM 30.6678 -89.1308 265° West 383 441 34,000  Level Houston Center
02:26PM 30.6589 -89.2514 265° West 379 436 34,000  Level Houston Center
02:27PM 30.6503 -89.3733 265° West 380 437 34,000  Level Houston Center
02:28PM 30.6389 -89.5194 265° West 381 438 34,000  Level Houston Center
02:29PM 30.6297 -89.6394 265° West 377 434 34,000  Level Houston Center
02:30PM 30.6194 -89.7600 264° West 379 436 34,000  Level Houston Center
02:31PM 30.6097 -89.8806 265° West 381 438 34,000  Level Houston Center
02:32PM 30.5983 -90.0258 265° West 384 442 34,000  Level Houston Center
02:33PM 30.5875 -90.1464 264° West 381 438 34,000  Level Houston Center
02:34PM 30.5767 -90.2656 264° West 376 433 34,000  Level Houston Center
02:35PM 30.5661 -90.3850 264° West 373 429 34,000  Level Houston Center
02:36PM 30.5553 -90.5058 264° West 379 436 34,000  Level Houston Center
02:37PM 30.5428 -90.6489 264° West 375 432 34,000  Level Houston Center
02:39PM 30.5311 -90.7697 264° West 378 435 34,000  Level Houston Center
02:40PM 30.5206 -90.8900 264° West 377 434 34,000  Level Houston Center
02:41PM 30.5103 -91.0097 264° West 375 432 34,000  Level Houston Center
02:42PM 30.4986 -91.1306 264° West 378 435 34,000  Level Houston Center
02:43PM 30.4869 -91.2506 264° West 377 434 34,000  Level Houston Center
02:44PM 30.4661 -91.3928 260° West 373 429 34,000  Level Houston Center
02:45PM 30.4439 -91.5078 257° West 368 423 34,000  Level Houston Center
02:46PM 30.4206 -91.6228 257° West 367 422 34,000  Level Houston Center
02:47PM 30.3175 -91.6739 203° Southwest 397 457 34,000  Level Houston Center
02:48PM 30.2036 -91.7039 193° South 416 479 34,000  Level Houston Center
02:49PM 30.0706 -91.7400 193° South 437 503 34,000  Level Houston Center
02:50PM 29.9514 -91.7728 193° South 440 506 34,000  Level Houston Center
02:51PM 29.8378 -91.8125 197° South 434 499 34,000  Level Houston Center
02:52PM 29.7542 -91.9331 231° Southwest 403 464 34,000  Level Houston Center
02:53PM 29.6903 -92.0381 235° Southwest 402 463 34,000  Level Houston Center
02:54PM 29.6264 -92.1439 235° Southwest 402 463 34,000  Level Houston Center
02:55PM 29.5633 -92.2514 236° Southwest 405 466 34,000  Level Houston Center
02:56PM 29.5000 -92.3567 235° Southwest 402 463 34,000  Level Houston Center
02:57PM 29.4811 -92.4719 259° West 394 453 34,000  Level Houston Center
02:58PM 29.5064 -92.6133 282° West 379 436 34,000  Level Houston Center
02:59PM 29.5281 -92.7336 282° West 382 440 34,000  Level Houston Center
03:00PM 29.5486 -92.8528 281° West 382 440 34,000  Level Houston Center
03:01PM 29.5697 -92.9714 282° West 380 437 34,000  Level Houston Center
03:02PM 29.5889 -93.0878 281° West 375 432 34,000  Level Houston Center
03:03PM 29.6092 -93.2075 281° West 378 435 34,000  Level Houston Center
03:04PM 29.6333 -93.3400 282° West 379 436 34,000  Level Houston Center
03:05PM 29.6522 -93.4572 281° West 375 432 34,000  Level Houston Center
03:06PM 29.6717 -93.5742 281° West 373 429 34,000  Level Houston Center
03:08PM 29.6953 -93.7131 281° West 371 427 34,000  Level Houston Center
03:09PM 29.7144 -93.8292 281° West 369 425 34,000  Level Houston Center
03:10PM 29.7333 -93.9450 281° West 371 427 34,000  Level Houston Center
03:11PM 29.7533 -94.0625 281° West 374 430 34,000  Level Houston Center
03:12PM 29.7728 -94.1794 281° West 374 430 34,000  Level Houston Center
03:13PM 29.7914 -94.2964 280° West 373 429 34,000  Level Houston Center
03:14PM 29.8136 -94.4328 281° West 364 419 34,000  Level Houston Center
03:15PM 29.8314 -94.5483 280° West 368 423 34,000  Level Houston Center
03:16PM 29.8511 -94.6658 281° West 375 432 34,000  Level Houston Center
03:17PM 29.8700 -94.7833 281° West 377 434 34,000  Level Houston Center
03:18PM 29.8875 -94.8967 280° West 366 421 34,000  Level Houston Center
03:19PM 29.9083 -95.0336 280° West 366 421 34,000  Level Houston Center
03:20PM 29.9278 -95.1464 281° West 365 420 34,000  Level Houston Center
03:21PM 29.9478 -95.2597 282° West 367 422 34,000  Level Houston Center
03:22PM 30.0294 -95.3381 320° Northwest 407 468 34,000  Level Houston Center
03:23PM 30.1564 -95.3367 North 452 520 34,000  Level Houston Center
03:24PM 30.3097 -95.3256 North 457 526 34,000  Level Houston Center
03:25PM 30.4325 -95.3167 North 457 526 34,000  Level Houston Center
03:26PM 30.5594 -95.3067 North 457 526 34,000  Level Houston Center
03:27PM 30.6892 -95.2975 North 460 529 34,000  Level Houston Center
03:28PM 30.8447 -95.2883 North 463 533 34,000  Level Houston Center
03:29PM 30.9750 -95.2797 North 460 529 34,000  Level Houston Center
03:30PM 31.1053 -95.2700 North 462 532 34,000  Level Houston Center
03:31PM 31.1367 -95.2703 360° North 458 527 34,000  Level Fort Worth Center
03:32PM 31.2681 -95.2625 North 464 534 34,000  Level Fort Worth Center
03:33PM 31.3936 -95.2767 354° North 459 528 34,000  Level Fort Worth Center
03:34PM 31.4742 -95.3575 319° Northwest 401 461 34,000  Level Fort Worth Center
03:35PM 31.5489 -95.4486 314° West 397 457 34,000 -900 Level Fort Worth Center
03:36PM 31.6253 -95.5397 315° West 388 447 32,200 -1,620 Descending Fort Worth Center
03:37PM 31.6997 -95.6333 313° West 388 447 30,800 -1,860 Descending Fort Worth Center
03:38PM 31.8211 -95.6578 350° North 393 452 28,500 -2,400 Descending Fort Worth Center
03:39PM 31.9506 -95.6481 North 416 479 26,100 -2,280 Descending Fort Worth Center
03:40PM 32.0861 -95.6406 North 450 518 24,000 -1,140 Descending Fort Worth Center
03:41PM 32.2094 -95.6481 357° North 450 518 23,900 -1,020 Descending Fort Worth Center
03:42PM 32.3325 -95.6506 359° North 445 512 22,000 -1,800 Descending Fort Worth Center
03:43PM 32.4642 -95.6628 356° North 440 506 20,400 -1,500 Descending Fort Worth Center
03:44PM 32.5567 -95.7028 340° North 397 457 19,100 -1,380 Descending Fort Worth Center
03:45PM 32.6556 -95.7578 335° Northwest 363 418 17,700 -1,440 Descending Fort Worth Center
03:46PM 32.7147 -95.8183 319° Northwest 331 381 16,300 -1,680 Descending Fort Worth Center
03:47PM 32.7222 -95.9119 275° West 261 300 14,400 -1,740 Descending Fort Worth Center
03:48PM 32.6917 -95.9767 241° Southwest 242 278 12,900 -1,680 Descending Fort Worth Center
03:49PM 32.6611 -96.0611 247° West 248 285 11,100 -1,500 Descending Fort Worth Center
03:50PM 32.6369 -96.1281 247° West 253 291 10,000 -600 Descending Fort Worth Center
03:51PM 32.6042 -96.2125 245° Southwest 253 291 10,000  Level Fort Worth Center
03:52PM 32.5608 -96.2672 227° Southwest 253 291 10,000  Level Fort Worth Center
03:53PM 32.5072 -96.3294 224° Southwest 253 291 10,000 -540 Level Fort Worth Center
03:54PM 32.5119 -96.3983 275° West 231 266 9,000 -780 Descending Fort Worth Center
03:55PM 32.5481 -96.4744 299° West 238 274 8,500 -720 Descending Fort Worth Center
03:56PM 32.5694 -96.5258 296° West 215 247 7,600 -1,200 Descending Fort Worth Center
03:57PM 32.6053 -96.5822 307° West 202 232 6,100 -1,380 Descending Fort Worth Center
03:58PM 32.6472 -96.6314 315° West 202 232 4,900 -960 Descending Fort Worth Center
03:58PM 32.6833 -96.6667 321° Northwest 188 216 4,300 -1,080 Descending Dallas / Fort Worth TRACON
04:00PM 32.7167 -96.7167 308° West 188 216 2,800 -840 Descending Dallas / Fort Worth TRACON
04:00PM 32.7500 -96.7500 320° Northwest 186 214 2,700 -600 Descending Dallas / Fort Worth TRACON
04:02PM 32.8000 -96.8000 320° Northwest 150 173 1,600 -660 Descending Dallas / Fort Worth TRACON
04:04PM 32.8489 -96.8669 311° West 144 166 800 -420 Descending Fort Worth Center